Lake Luzerne, NY (12846)

4:52 PM EDT on August 30, 2014 (GMT -0400)
On The Hudson River | Change Station
CLOSE
Current Station
Personal Weather Station
Location: Hadley, NY
Elevation: 600 ft
Nearby Weather Stations

Elev 600 ft 43.30 °N, 73.83 °W | Updated 0 second ago

Clear
Clear
83.8 °F
Feels Like 86 °F
N
6.2
Wind Variable Wind from WSW
Gusts 15.0 mph

Today
High -- | Low -- °F
--% Chance of Precip.
Yesterday
High -- | Low -- °F
Precip. -- in
6:17 AM 7:33 PM
Waxing Crescent, 24% visible
Pressure 30.11 in
Visibility 10.0 miles
Clouds Few 4400 ft
Heat Index 86 °F
Dew Point 65 °F
Humidity 54%
Rainfall 0.00 in
Snow Depth Not available.
UV 5 out of 12
Pollen 9.00 out of 12
Air Quality Not available.
Flu Activity Not available.
METAR KGFL 301953Z AUTO 19011KT 10SM FEW044 25/15 A3010 RMK AO2 SLP194 T02500150 $

More Conditions Fewer Conditions

Pressure 30.11 in
Visibility 10.0 miles
Clouds Few 4400 ft
Heat Index 86 °F
Dew Point 65 °F
Humidity 54%
Rainfall 0.00 in
Snow Depth Not available.
UV 5 out of 12
Pollen 9.00 out of 12
Air Quality Not available.
Flu Activity Not available.
METAR KGFL 301953Z AUTO 19011KT 10SM FEW044 25/15 A3010 RMK AO2 SLP194 T02500150 $

More Conditions Fewer Conditions

10-Day Weather Forecast

Almanac

Astronomy

Aug. 30, 2014 Rise Set
Actual Time 6:17 AM EDT 7:33 PM EDT
Civil Twilight 5:47 AM EDT 8:03 PM EDT
Nautical Twilight 5:12 AM EDT 8:38 PM EDT
Astronomical Twilight 4:34 AM EDT 9:16 PM EDT
Moon 11:11 AM EDT 9:56 PM EDT
Length of Visible Light 14h 15m
Length of Day
13h 16m
Tomorrow will be 2m 51s shorter.
Waxing Crescent, 24% of the Moon is Illuminated
Today
Waxing Crescent
Sep 2
First Quarter
Sep 8
Full
Sep 15
Last Quarter
Sep 24
New

Today's Extremes

State Highs State Lows

Community

WunderPhotos

Upload Photos

1,748,624 photos uploaded!

WunderBlogs® & News

Nearby

Air Quality

  Air Quality AQ Index Pollutant
Saturday Good
PM2.5
Saturday Good
OZONE
Sunday Good
PM2.5
Sunday Good
OZONE
Monday Moderate
OZONE
Monday Good
PM2.5
Tuesday Good
PM2.5
Tuesday Good
OZONE

Snow Depth

Station Depth Elevation
No new snow has been reported.

Earthquake Activity

City Distance Mag. Time & Date
No recent earthquake activity has been reported nearby.
Minimum magnitude displayed is 2.5.

Coastal Water Temperatures

Place Temperature
No Stations Reporting

Nearby Weather Stations